sensor_id;sensor_type;location;lat;lon;timestamp;temperature;humidity
21104;DHT22;10710;53.398;-1.514;2023-01-26T00:01:44;5.10;99.90
21104;DHT22;10710;53.398;-1.514;2023-01-26T00:04:11;5.10;99.90
21104;DHT22;10710;53.398;-1.514;2023-01-26T00:06:36;5.00;99.90
21104;DHT22;10710;53.398;-1.514;2023-01-26T00:09:03;5.00;99.90
21104;DHT22;10710;53.398;-1.514;2023-01-26T00:11:29;5.00;99.90
21104;DHT22;10710;53.398;-1.514;2023-01-26T00:13:56;5.00;99.90
21104;DHT22;10710;53.398;-1.514;2023-01-26T00:16:23;5.00;99.90
21104;DHT22;10710;53.398;-1.514;2023-01-26T00:18:49;5.00;99.90
21104;DHT22;10710;53.398;-1.514;2023-01-26T00:21:17;4.90;99.90
21104;DHT22;10710;53.398;-1.514;2023-01-26T00:23:43;4.80;99.90
21104;DHT22;10710;53.398;-1.514;2023-01-26T00:26:12;4.90;99.90
21104;DHT22;10710;53.398;-1.514;2023-01-26T00:28:38;4.80;99.90
21104;DHT22;10710;53.398;-1.514;2023-01-26T00:31:14;4.90;99.90
21104;DHT22;10710;53.398;-1.514;2023-01-26T00:33:40;4.90;99.90
21104;DHT22;10710;53.398;-1.514;2023-01-26T00:36:07;4.80;99.90
21104;DHT22;10710;53.398;-1.514;2023-01-26T00:38:33;4.80;99.90
21104;DHT22;10710;53.398;-1.514;2023-01-26T00:40:59;4.80;99.90
21104;DHT22;10710;53.398;-1.514;2023-01-26T00:43:25;4.80;99.90
21104;DHT22;10710;53.398;-1.514;2023-01-26T00:45:50;4.80;99.90
21104;DHT22;10710;53.398;-1.514;2023-01-26T00:48:16;4.80;99.90
21104;DHT22;10710;53.398;-1.514;2023-01-26T00:50:42;4.80;99.90
21104;DHT22;10710;53.398;-1.514;2023-01-26T00:53:09;4.70;99.90
21104;DHT22;10710;53.398;-1.514;2023-01-26T00:55:35;4.60;99.90
21104;DHT22;10710;53.398;-1.514;2023-01-26T00:58:04;4.60;99.90
21104;DHT22;10710;53.398;-1.514;2023-01-26T01:00:31;4.60;99.90
21104;DHT22;10710;53.398;-1.514;2023-01-26T01:02:57;4.50;99.90
21104;DHT22;10710;53.398;-1.514;2023-01-26T01:05:25;4.50;99.90
21104;DHT22;10710;53.398;-1.514;2023-01-26T01:07:51;4.50;99.90
21104;DHT22;10710;53.398;-1.514;2023-01-26T01:10:17;4.40;99.90
21104;DHT22;10710;53.398;-1.514;2023-01-26T01:12:43;4.40;99.90
21104;DHT22;10710;53.398;-1.514;2023-01-26T01:15:09;4.40;99.90
21104;DHT22;10710;53.398;-1.514;2023-01-26T01:17:36;4.40;99.90
21104;DHT22;10710;53.398;-1.514;2023-01-26T01:20:04;4.30;99.90
21104;DHT22;10710;53.398;-1.514;2023-01-26T01:22:31;4.20;99.90
21104;DHT22;10710;53.398;-1.514;2023-01-26T01:24:57;4.20;99.90
21104;DHT22;10710;53.398;-1.514;2023-01-26T01:27:22;4.20;99.90
21104;DHT22;10710;53.398;-1.514;2023-01-26T01:29:52;4.20;99.90
21104;DHT22;10710;53.398;-1.514;2023-01-26T01:32:18;4.10;99.90
21104;DHT22;10710;53.398;-1.514;2023-01-26T01:34:47;4.10;99.90
21104;DHT22;10710;53.398;-1.514;2023-01-26T01:37:13;4.00;99.90
21104;DHT22;10710;53.398;-1.514;2023-01-26T01:39:39;3.90;99.90
21104;DHT22;10710;53.398;-1.514;2023-01-26T01:42:05;3.90;99.90
21104;DHT22;10710;53.398;-1.514;2023-01-26T01:44:34;4.00;99.90
21104;DHT22;10710;53.398;-1.514;2023-01-26T01:47:03;3.90;99.90
21104;DHT22;10710;53.398;-1.514;2023-01-26T01:49:45;3.80;99.90
21104;DHT22;10710;53.398;-1.514;2023-01-26T01:52:16;3.90;99.90
21104;DHT22;10710;53.398;-1.514;2023-01-26T01:54:59;3.80;99.90
21104;DHT22;10710;53.398;-1.514;2023-01-26T01:57:32;3.70;99.90
21104;DHT22;10710;53.398;-1.514;2023-01-26T02:00:16;3.70;99.90
21104;DHT22;10710;53.398;-1.514;2023-01-26T02:02:44;3.70;99.90
21104;DHT22;10710;53.398;-1.514;2023-01-26T02:05:33;3.70;99.90
21104;DHT22;10710;53.398;-1.514;2023-01-26T02:08:02;3.70;99.90
21104;DHT22;10710;53.398;-1.514;2023-01-26T02:10:29;3.60;99.90
21104;DHT22;10710;53.398;-1.514;2023-01-26T02:12:55;3.60;99.90
21104;DHT22;10710;53.398;-1.514;2023-01-26T02:15:22;3.60;99.90
21104;DHT22;10710;53.398;-1.514;2023-01-26T02:17:51;3.60;99.90
21104;DHT22;10710;53.398;-1.514;2023-01-26T02:25:46;3.70;99.90
21104;DHT22;10710;53.398;-1.514;2023-01-26T02:28:21;3.70;99.90
21104;DHT22;10710;53.398;-1.514;2023-01-26T02:30:48;3.90;99.90
21104;DHT22;10710;53.398;-1.514;2023-01-26T02:33:17;4.00;99.90
21104;DHT22;10710;53.398;-1.514;2023-01-26T02:35:43;4.00;99.90
21104;DHT22;10710;53.398;-1.514;2023-01-26T02:38:09;4.00;99.90
21104;DHT22;10710;53.398;-1.514;2023-01-26T02:40:43;4.10;99.90
21104;DHT22;10710;53.398;-1.514;2023-01-26T02:43:11;4.10;99.90
21104;DHT22;10710;53.398;-1.514;2023-01-26T02:45:37;4.20;99.90
21104;DHT22;10710;53.398;-1.514;2023-01-26T02:48:05;4.30;99.90
21104;DHT22;10710;53.398;-1.514;2023-01-26T02:50:33;4.50;99.90
21104;DHT22;10710;53.398;-1.514;2023-01-26T02:53:00;4.60;99.90
21104;DHT22;10710;53.398;-1.514;2023-01-26T02:55:27;4.70;99.90
21104;DHT22;10710;53.398;-1.514;2023-01-26T02:57:58;4.70;99.90
21104;DHT22;10710;53.398;-1.514;2023-01-26T03:00:30;4.90;99.90
21104;DHT22;10710;53.398;-1.514;2023-01-26T03:02:58;5.10;99.90
21104;DHT22;10710;53.398;-1.514;2023-01-26T03:05:26;5.20;99.90
21104;DHT22;10710;53.398;-1.514;2023-01-26T03:07:53;5.30;99.90
21104;DHT22;10710;53.398;-1.514;2023-01-26T03:10:19;5.40;99.90
21104;DHT22;10710;53.398;-1.514;2023-01-26T03:12:48;5.40;99.90
21104;DHT22;10710;53.398;-1.514;2023-01-26T03:15:14;5.50;99.90
21104;DHT22;10710;53.398;-1.514;2023-01-26T03:18:06;5.60;99.90
21104;DHT22;10710;53.398;-1.514;2023-01-26T03:20:51;5.70;99.90
21104;DHT22;10710;53.398;-1.514;2023-01-26T03:23:35;5.90;99.90
21104;DHT22;10710;53.398;-1.514;2023-01-26T03:26:20;6.00;99.90
21104;DHT22;10710;53.398;-1.514;2023-01-26T03:29:05;6.10;99.90
21104;DHT22;10710;53.398;-1.514;2023-01-26T03:31:31;6.20;99.90
21104;DHT22;10710;53.398;-1.514;2023-01-26T03:33:57;6.20;99.90
21104;DHT22;10710;53.398;-1.514;2023-01-26T03:36:22;6.30;99.90
21104;DHT22;10710;53.398;-1.514;2023-01-26T03:38:48;6.30;99.90
21104;DHT22;10710;53.398;-1.514;2023-01-26T03:41:17;6.40;99.90
21104;DHT22;10710;53.398;-1.514;2023-01-26T03:44:01;6.40;99.90
21104;DHT22;10710;53.398;-1.514;2023-01-26T03:46:46;6.50;99.90
21104;DHT22;10710;53.398;-1.514;2023-01-26T03:49:30;6.50;99.90
21104;DHT22;10710;53.398;-1.514;2023-01-26T03:52:15;6.60;99.90
21104;DHT22;10710;53.398;-1.514;2023-01-26T03:54:59;6.60;99.90
21104;DHT22;10710;53.398;-1.514;2023-01-26T03:57:43;6.70;99.90
21104;DHT22;10710;53.398;-1.514;2023-01-26T04:00:10;6.80;99.90
21104;DHT22;10710;53.398;-1.514;2023-01-26T04:02:35;6.80;99.90
21104;DHT22;10710;53.398;-1.514;2023-01-26T04:05:20;6.90;99.90
21104;DHT22;10710;53.398;-1.514;2023-01-26T04:08:05;6.90;99.90
21104;DHT22;10710;53.398;-1.514;2023-01-26T04:10:54;6.90;99.90
21104;DHT22;10710;53.398;-1.514;2023-01-26T04:13:22;7.00;99.90
21104;DHT22;10710;53.398;-1.514;2023-01-26T04:16:08;7.00;99.90
21104;DHT22;10710;53.398;-1.514;2023-01-26T04:19:02;7.00;99.90
21104;DHT22;10710;53.398;-1.514;2023-01-26T04:21:48;7.00;99.90
21104;DHT22;10710;53.398;-1.514;2023-01-26T04:24:21;7.00;99.90
21104;DHT22;10710;53.398;-1.514;2023-01-26T04:26:48;7.00;99.90
21104;DHT22;10710;53.398;-1.514;2023-01-26T04:29:16;7.10;99.90
21104;DHT22;10710;53.398;-1.514;2023-01-26T04:31:42;7.00;99.90
21104;DHT22;10710;53.398;-1.514;2023-01-26T04:34:18;7.00;99.90
21104;DHT22;10710;53.398;-1.514;2023-01-26T04:36:44;7.10;99.90
21104;DHT22;10710;53.398;-1.514;2023-01-26T04:39:10;7.10;99.90
21104;DHT22;10710;53.398;-1.514;2023-01-26T04:41:36;7.10;99.90
21104;DHT22;10710;53.398;-1.514;2023-01-26T04:44:01;7.10;99.90
21104;DHT22;10710;53.398;-1.514;2023-01-26T04:46:28;7.20;99.90
21104;DHT22;10710;53.398;-1.514;2023-01-26T04:48:53;7.20;99.90
21104;DHT22;10710;53.398;-1.514;2023-01-26T04:51:20;7.20;99.90
21104;DHT22;10710;53.398;-1.514;2023-01-26T04:53:47;7.20;99.90
21104;DHT22;10710;53.398;-1.514;2023-01-26T04:56:33;7.20;99.90
21104;DHT22;10710;53.398;-1.514;2023-01-26T04:59:04;7.20;99.90
21104;DHT22;10710;53.398;-1.514;2023-01-26T05:01:30;7.20;99.90
21104;DHT22;10710;53.398;-1.514;2023-01-26T05:04:00;7.20;99.90
21104;DHT22;10710;53.398;-1.514;2023-01-26T05:06:26;7.20;99.90
21104;DHT22;10710;53.398;-1.514;2023-01-26T05:08:52;7.20;99.90
21104;DHT22;10710;53.398;-1.514;2023-01-26T05:11:18;7.30;99.90
21104;DHT22;10710;53.398;-1.514;2023-01-26T05:13:43;7.20;99.90
21104;DHT22;10710;53.398;-1.514;2023-01-26T05:16:10;7.20;99.90
21104;DHT22;10710;53.398;-1.514;2023-01-26T05:18:41;7.20;99.90
21104;DHT22;10710;53.398;-1.514;2023-01-26T05:21:09;7.20;99.90
21104;DHT22;10710;53.398;-1.514;2023-01-26T05:23:34;7.20;99.90
21104;DHT22;10710;53.398;-1.514;2023-01-26T05:26:00;7.20;99.90
21104;DHT22;10710;53.398;-1.514;2023-01-26T05:28:26;7.20;99.90
21104;DHT22;10710;53.398;-1.514;2023-01-26T05:30:52;7.30;99.90
21104;DHT22;10710;53.398;-1.514;2023-01-26T05:33:18;7.20;99.90
21104;DHT22;10710;53.398;-1.514;2023-01-26T05:35:51;7.20;99.90
21104;DHT22;10710;53.398;-1.514;2023-01-26T05:38:18;7.20;99.90
21104;DHT22;10710;53.398;-1.514;2023-01-26T05:40:44;7.20;99.90
21104;DHT22;10710;53.398;-1.514;2023-01-26T05:43:11;7.30;99.90
21104;DHT22;10710;53.398;-1.514;2023-01-26T05:45:38;7.20;99.90
21104;DHT22;10710;53.398;-1.514;2023-01-26T05:48:04;7.30;99.90
21104;DHT22;10710;53.398;-1.514;2023-01-26T05:50:30;7.30;99.90
21104;DHT22;10710;53.398;-1.514;2023-01-26T05:52:55;7.40;99.90
21104;DHT22;10710;53.398;-1.514;2023-01-26T05:55:21;7.30;99.90
21104;DHT22;10710;53.398;-1.514;2023-01-26T05:57:48;7.30;99.90
21104;DHT22;10710;53.398;-1.514;2023-01-26T06:00:14;7.30;99.90
21104;DHT22;10710;53.398;-1.514;2023-01-26T06:02:40;7.30;99.90
21104;DHT22;10710;53.398;-1.514;2023-01-26T06:05:06;7.30;99.90
21104;DHT22;10710;53.398;-1.514;2023-01-26T06:07:32;7.30;99.90
21104;DHT22;10710;53.398;-1.514;2023-01-26T06:09:58;7.30;99.90
21104;DHT22;10710;53.398;-1.514;2023-01-26T06:12:24;7.30;99.90
21104;DHT22;10710;53.398;-1.514;2023-01-26T06:14:50;7.40;99.90
21104;DHT22;10710;53.398;-1.514;2023-01-26T06:17:16;7.30;99.90
21104;DHT22;10710;53.398;-1.514;2023-01-26T06:19:42;7.30;99.90
21104;DHT22;10710;53.398;-1.514;2023-01-26T06:22:10;7.40;99.90
21104;DHT22;10710;53.398;-1.514;2023-01-26T06:24:36;7.40;99.90
21104;DHT22;10710;53.398;-1.514;2023-01-26T06:27:02;7.40;99.90
21104;DHT22;10710;53.398;-1.514;2023-01-26T06:29:32;7.50;99.90
21104;DHT22;10710;53.398;-1.514;2023-01-26T06:31:58;7.40;99.90
21104;DHT22;10710;53.398;-1.514;2023-01-26T06:34:25;7.50;99.90
21104;DHT22;10710;53.398;-1.514;2023-01-26T06:36:51;7.40;99.90
21104;DHT22;10710;53.398;-1.514;2023-01-26T06:39:17;7.50;99.90
21104;DHT22;10710;53.398;-1.514;2023-01-26T06:41:43;7.40;99.90
21104;DHT22;10710;53.398;-1.514;2023-01-26T06:44:09;7.50;99.90
21104;DHT22;10710;53.398;-1.514;2023-01-26T06:46:35;7.50;99.90
21104;DHT22;10710;53.398;-1.514;2023-01-26T06:49:02;7.50;99.90
21104;DHT22;10710;53.398;-1.514;2023-01-26T06:52:02;7.50;99.90
21104;DHT22;10710;53.398;-1.514;2023-01-26T06:54:20;7.50;99.90
21104;DHT22;10710;53.398;-1.514;2023-01-26T06:56:45;7.50;99.90
21104;DHT22;10710;53.398;-1.514;2023-01-26T06:59:12;7.50;99.90
21104;DHT22;10710;53.398;-1.514;2023-01-26T07:01:44;7.50;99.90
21104;DHT22;10710;53.398;-1.514;2023-01-26T07:04:09;7.50;99.90
21104;DHT22;10710;53.398;-1.514;2023-01-26T07:06:36;7.50;99.90
21104;DHT22;10710;53.398;-1.514;2023-01-26T07:09:02;7.40;99.90
21104;DHT22;10710;53.398;-1.514;2023-01-26T07:11:28;7.50;99.90
21104;DHT22;10710;53.398;-1.514;2023-01-26T07:13:56;7.50;99.90
21104;DHT22;10710;53.398;-1.514;2023-01-26T07:16:22;7.50;99.90
21104;DHT22;10710;53.398;-1.514;2023-01-26T07:18:48;7.50;99.90
21104;DHT22;10710;53.398;-1.514;2023-01-26T07:21:18;7.40;99.90
21104;DHT22;10710;53.398;-1.514;2023-01-26T07:23:44;7.50;99.90
21104;DHT22;10710;53.398;-1.514;2023-01-26T07:26:11;7.50;99.90
21104;DHT22;10710;53.398;-1.514;2023-01-26T07:28:38;7.40;99.90
21104;DHT22;10710;53.398;-1.514;2023-01-26T07:31:04;7.50;99.90
21104;DHT22;10710;53.398;-1.514;2023-01-26T07:33:31;7.40;99.90
21104;DHT22;10710;53.398;-1.514;2023-01-26T07:35:58;7.50;99.90
21104;DHT22;10710;53.398;-1.514;2023-01-26T07:38:25;7.50;99.90
21104;DHT22;10710;53.398;-1.514;2023-01-26T07:40:51;7.60;99.90
21104;DHT22;10710;53.398;-1.514;2023-01-26T07:43:18;7.50;99.90
21104;DHT22;10710;53.398;-1.514;2023-01-26T07:45:45;7.50;99.90
21104;DHT22;10710;53.398;-1.514;2023-01-26T07:48:12;7.50;99.90
21104;DHT22;10710;53.398;-1.514;2023-01-26T07:50:39;7.50;99.90
21104;DHT22;10710;53.398;-1.514;2023-01-26T07:53:05;7.50;99.90
21104;DHT22;10710;53.398;-1.514;2023-01-26T07:55:32;7.50;99.90
21104;DHT22;10710;53.398;-1.514;2023-01-26T07:57:58;7.60;99.90
21104;DHT22;10710;53.398;-1.514;2023-01-26T08:00:24;7.60;99.90
21104;DHT22;10710;53.398;-1.514;2023-01-26T08:02:51;7.60;99.90
21104;DHT22;10710;53.398;-1.514;2023-01-26T08:05:17;7.60;99.90
21104;DHT22;10710;53.398;-1.514;2023-01-26T08:07:43;7.50;99.90
21104;DHT22;10710;53.398;-1.514;2023-01-26T08:10:09;7.60;99.90
21104;DHT22;10710;53.398;-1.514;2023-01-26T08:12:36;7.70;99.90
21104;DHT22;10710;53.398;-1.514;2023-01-26T08:15:03;7.70;99.90
21104;DHT22;10710;53.398;-1.514;2023-01-26T08:17:29;7.70;99.90
21104;DHT22;10710;53.398;-1.514;2023-01-26T08:19:55;7.70;99.90
21104;DHT22;10710;53.398;-1.514;2023-01-26T08:22:21;7.70;99.90
21104;DHT22;10710;53.398;-1.514;2023-01-26T08:24:46;7.70;99.90
21104;DHT22;10710;53.398;-1.514;2023-01-26T08:27:13;7.70;99.90
21104;DHT22;10710;53.398;-1.514;2023-01-26T08:29:40;7.60;99.90
21104;DHT22;10710;53.398;-1.514;2023-01-26T08:32:06;7.60;99.90
21104;DHT22;10710;53.398;-1.514;2023-01-26T08:34:34;7.70;99.90
21104;DHT22;10710;53.398;-1.514;2023-01-26T08:37:00;7.70;99.90
21104;DHT22;10710;53.398;-1.514;2023-01-26T08:39:26;7.70;99.90
21104;DHT22;10710;53.398;-1.514;2023-01-26T08:41:52;7.80;99.90
21104;DHT22;10710;53.398;-1.514;2023-01-26T08:44:18;7.80;99.90
21104;DHT22;10710;53.398;-1.514;2023-01-26T08:46:44;7.80;99.90
21104;DHT22;10710;53.398;-1.514;2023-01-26T08:49:10;7.90;99.90
21104;DHT22;10710;53.398;-1.514;2023-01-26T08:51:35;7.80;99.90
21104;DHT22;10710;53.398;-1.514;2023-01-26T08:54:05;7.80;99.90
21104;DHT22;10710;53.398;-1.514;2023-01-26T08:56:32;7.80;99.90
21104;DHT22;10710;53.398;-1.514;2023-01-26T08:58:58;7.90;99.90
21104;DHT22;10710;53.398;-1.514;2023-01-26T09:01:24;8.00;99.90
21104;DHT22;10710;53.398;-1.514;2023-01-26T09:03:51;8.00;99.90
21104;DHT22;10710;53.398;-1.514;2023-01-26T09:06:17;8.10;99.90
21104;DHT22;10710;53.398;-1.514;2023-01-26T09:08:43;8.00;99.90
21104;DHT22;10710;53.398;-1.514;2023-01-26T09:11:09;8.10;99.90
21104;DHT22;10710;53.398;-1.514;2023-01-26T09:13:36;8.00;99.90
21104;DHT22;10710;53.398;-1.514;2023-01-26T09:16:08;8.00;99.90
21104;DHT22;10710;53.398;-1.514;2023-01-26T09:18:36;8.00;99.90
21104;DHT22;10710;53.398;-1.514;2023-01-26T09:21:04;8.00;99.90
21104;DHT22;10710;53.398;-1.514;2023-01-26T09:23:32;8.00;99.90
21104;DHT22;10710;53.398;-1.514;2023-01-26T09:25:59;8.10;99.90
21104;DHT22;10710;53.398;-1.514;2023-01-26T09:28:24;8.00;99.90
21104;DHT22;10710;53.398;-1.514;2023-01-26T09:30:50;8.00;99.90
21104;DHT22;10710;53.398;-1.514;2023-01-26T09:33:16;8.10;99.90
21104;DHT22;10710;53.398;-1.514;2023-01-26T09:35:42;8.10;99.90
21104;DHT22;10710;53.398;-1.514;2023-01-26T09:38:08;8.00;99.90
21104;DHT22;10710;53.398;-1.514;2023-01-26T09:43:33;8.00;99.90
21104;DHT22;10710;53.398;-1.514;2023-01-26T09:48:48;8.20;99.90
21104;DHT22;10710;53.398;-1.514;2023-01-26T09:51:22;8.20;99.90
21104;DHT22;10710;53.398;-1.514;2023-01-26T09:53:57;8.30;99.90
21104;DHT22;10710;53.398;-1.514;2023-01-26T09:56:27;8.30;99.90
21104;DHT22;10710;53.398;-1.514;2023-01-26T10:02:22;8.20;99.90
21104;DHT22;10710;53.398;-1.514;2023-01-26T10:04:56;8.20;99.90
21104;DHT22;10710;53.398;-1.514;2023-01-26T10:07:22;8.40;99.90
21104;DHT22;10710;53.398;-1.514;2023-01-26T10:09:50;8.40;99.90
21104;DHT22;10710;53.398;-1.514;2023-01-26T10:14:50;8.30;99.90
21104;DHT22;10710;53.398;-1.514;2023-01-26T10:20:33;8.20;99.90
21104;DHT22;10710;53.398;-1.514;2023-01-26T10:23:14;8.10;99.90
21104;DHT22;10710;53.398;-1.514;2023-01-26T10:25:43;8.00;99.90
21104;DHT22;10710;53.398;-1.514;2023-01-26T10:28:28;8.00;99.90
21104;DHT22;10710;53.398;-1.514;2023-01-26T10:30:55;8.20;99.90
21104;DHT22;10710;53.398;-1.514;2023-01-26T10:33:36;8.30;99.90
21104;DHT22;10710;53.398;-1.514;2023-01-26T10:36:04;8.40;99.90
21104;DHT22;10710;53.398;-1.514;2023-01-26T10:41:02;8.80;99.90
21104;DHT22;10710;53.398;-1.514;2023-01-26T10:43:31;8.80;99.90
21104;DHT22;10710;53.398;-1.514;2023-01-26T10:46:00;8.80;99.90
21104;DHT22;10710;53.398;-1.514;2023-01-26T10:48:27;8.80;99.90
21104;DHT22;10710;53.398;-1.514;2023-01-26T10:50:54;8.70;99.90
21104;DHT22;10710;53.398;-1.514;2023-01-26T10:53:23;8.50;99.90
21104;DHT22;10710;53.398;-1.514;2023-01-26T10:58:58;8.30;99.90
21104;DHT22;10710;53.398;-1.514;2023-01-26T11:01:27;8.20;99.90
21104;DHT22;10710;53.398;-1.514;2023-01-26T11:04:06;8.10;99.90
21104;DHT22;10710;53.398;-1.514;2023-01-26T11:06:36;8.10;99.90
21104;DHT22;10710;53.398;-1.514;2023-01-26T11:09:27;8.20;99.90
21104;DHT22;10710;53.398;-1.514;2023-01-26T11:14:25;8.30;99.90
21104;DHT22;10710;53.398;-1.514;2023-01-26T11:22:21;8.50;99.90
21104;DHT22;10710;53.398;-1.514;2023-01-26T11:27:31;8.40;99.90
21104;DHT22;10710;53.398;-1.514;2023-01-26T11:43:10;7.80;99.90
21104;DHT22;10710;53.398;-1.514;2023-01-26T11:56:42;7.60;99.90
21104;DHT22;10710;53.398;-1.514;2023-01-26T11:59:23;7.80;99.90
21104;DHT22;10710;53.398;-1.514;2023-01-26T12:01:57;7.80;99.90
21104;DHT22;10710;53.398;-1.514;2023-01-26T12:04:24;8.10;99.90
21104;DHT22;10710;53.398;-1.514;2023-01-26T12:06:58;8.30;99.90
21104;DHT22;10710;53.398;-1.514;2023-01-26T12:20:36;8.30;99.90
21104;DHT22;10710;53.398;-1.514;2023-01-26T12:23:10;8.30;99.90
21104;DHT22;10710;53.398;-1.514;2023-01-26T12:25:45;8.20;99.90
21104;DHT22;10710;53.398;-1.514;2023-01-26T12:31:01;8.40;99.90
21104;DHT22;10710;53.398;-1.514;2023-01-26T12:33:31;8.50;99.90
21104;DHT22;10710;53.398;-1.514;2023-01-26T12:38:52;8.50;99.90
21104;DHT22;10710;53.398;-1.514;2023-01-26T12:44:29;8.50;99.90
21104;DHT22;10710;53.398;-1.514;2023-01-26T12:47:09;8.70;99.90
21104;DHT22;10710;53.398;-1.514;2023-01-26T12:49:45;8.60;99.90
21104;DHT22;10710;53.398;-1.514;2023-01-26T12:52:14;8.30;99.90
21104;DHT22;10710;53.398;-1.514;2023-01-26T12:57:20;8.30;99.90
21104;DHT22;10710;53.398;-1.514;2023-01-26T12:59:47;8.20;99.90
21104;DHT22;10710;53.398;-1.514;2023-01-26T13:04:48;8.10;99.90
21104;DHT22;10710;53.398;-1.514;2023-01-26T13:07:32;8.10;99.90
21104;DHT22;10710;53.398;-1.514;2023-01-26T13:10:28;8.20;99.90
21104;DHT22;10710;53.398;-1.514;2023-01-26T13:13:23;8.30;99.90
21104;DHT22;10710;53.398;-1.514;2023-01-26T13:15:47;8.40;99.90
21104;DHT22;10710;53.398;-1.514;2023-01-26T13:21:25;8.50;99.90
21104;DHT22;10710;53.398;-1.514;2023-01-26T13:23:51;8.50;99.90
21104;DHT22;10710;53.398;-1.514;2023-01-26T13:29:32;8.60;99.90
21104;DHT22;10710;53.398;-1.514;2023-01-26T13:31:59;8.60;99.90
21104;DHT22;10710;53.398;-1.514;2023-01-26T13:34:28;8.60;99.90
21104;DHT22;10710;53.398;-1.514;2023-01-26T13:37:04;8.60;99.90
21104;DHT22;10710;53.398;-1.514;2023-01-26T13:39:38;8.70;99.90
21104;DHT22;10710;53.398;-1.514;2023-01-26T13:42:34;8.70;99.90
21104;DHT22;10710;53.398;-1.514;2023-01-26T13:45:13;8.80;99.90
21104;DHT22;10710;53.398;-1.514;2023-01-26T13:47:44;8.80;99.90
21104;DHT22;10710;53.398;-1.514;2023-01-26T13:50:30;8.60;99.90
21104;DHT22;10710;53.398;-1.514;2023-01-26T13:52:57;8.50;99.90
21104;DHT22;10710;53.398;-1.514;2023-01-26T13:55:30;8.60;99.90
21104;DHT22;10710;53.398;-1.514;2023-01-26T13:58:13;8.50;99.90
21104;DHT22;10710;53.398;-1.514;2023-01-26T14:00:40;8.60;99.90
21104;DHT22;10710;53.398;-1.514;2023-01-26T14:03:20;8.70;99.90
21104;DHT22;10710;53.398;-1.514;2023-01-26T14:06:01;8.80;99.90
21104;DHT22;10710;53.398;-1.514;2023-01-26T14:08:30;8.90;99.90
21104;DHT22;10710;53.398;-1.514;2023-01-26T14:10:58;8.80;99.90
21104;DHT22;10710;53.398;-1.514;2023-01-26T14:13:34;8.80;99.90
21104;DHT22;10710;53.398;-1.514;2023-01-26T14:16:02;8.80;99.90
21104;DHT22;10710;53.398;-1.514;2023-01-26T14:18:28;8.80;99.90
21104;DHT22;10710;53.398;-1.514;2023-01-26T14:21:03;8.90;99.90
21104;DHT22;10710;53.398;-1.514;2023-01-26T14:23:34;8.80;99.90
21104;DHT22;10710;53.398;-1.514;2023-01-26T14:26:18;8.80;99.90
21104;DHT22;10710;53.398;-1.514;2023-01-26T14:28:45;8.80;99.90
21104;DHT22;10710;53.398;-1.514;2023-01-26T14:31:19;8.70;99.90
21104;DHT22;10710;53.398;-1.514;2023-01-26T14:33:51;8.70;99.90
21104;DHT22;10710;53.398;-1.514;2023-01-26T14:36:20;8.50;99.90
21104;DHT22;10710;53.398;-1.514;2023-01-26T14:38:49;8.50;99.90
21104;DHT22;10710;53.398;-1.514;2023-01-26T14:41:27;8.50;99.90
21104;DHT22;10710;53.398;-1.514;2023-01-26T14:43:55;8.60;99.90
21104;DHT22;10710;53.398;-1.514;2023-01-26T14:46:28;8.70;99.90
21104;DHT22;10710;53.398;-1.514;2023-01-26T14:49:00;8.70;99.90
21104;DHT22;10710;53.398;-1.514;2023-01-26T14:51:27;8.60;99.90
21104;DHT22;10710;53.398;-1.514;2023-01-26T14:53:56;8.60;99.90
21104;DHT22;10710;53.398;-1.514;2023-01-26T14:58:58;8.30;99.90
21104;DHT22;10710;53.398;-1.514;2023-01-26T15:01:25;8.20;99.90
21104;DHT22;10710;53.398;-1.514;2023-01-26T15:04:01;8.10;99.90
21104;DHT22;10710;53.398;-1.514;2023-01-26T15:06:29;7.90;99.90
21104;DHT22;10710;53.398;-1.514;2023-01-26T15:09:04;7.90;99.90
21104;DHT22;10710;53.398;-1.514;2023-01-26T15:11:38;8.00;99.90
21104;DHT22;10710;53.398;-1.514;2023-01-26T15:14:30;8.00;99.90
21104;DHT22;10710;53.398;-1.514;2023-01-26T15:16:57;8.00;99.90
21104;DHT22;10710;53.398;-1.514;2023-01-26T15:19:24;8.00;99.90
21104;DHT22;10710;53.398;-1.514;2023-01-26T15:21:50;8.10;99.90
21104;DHT22;10710;53.398;-1.514;2023-01-26T15:24:16;8.00;99.90
21104;DHT22;10710;53.398;-1.514;2023-01-26T15:26:42;8.10;99.90
21104;DHT22;10710;53.398;-1.514;2023-01-26T15:29:29;8.10;99.90
21104;DHT22;10710;53.398;-1.514;2023-01-26T15:31:56;8.00;99.90
21104;DHT22;10710;53.398;-1.514;2023-01-26T15:34:36;8.10;99.90
21104;DHT22;10710;53.398;-1.514;2023-01-26T15:39:48;8.30;99.90
21104;DHT22;10710;53.398;-1.514;2023-01-26T15:42:19;8.30;99.90
21104;DHT22;10710;53.398;-1.514;2023-01-26T15:44:45;8.30;99.90
21104;DHT22;10710;53.398;-1.514;2023-01-26T15:47:11;8.30;99.90
21104;DHT22;10710;53.398;-1.514;2023-01-26T15:49:38;8.40;99.90
21104;DHT22;10710;53.398;-1.514;2023-01-26T15:52:18;8.40;99.90
21104;DHT22;10710;53.398;-1.514;2023-01-26T15:54:45;8.40;99.90
21104;DHT22;10710;53.398;-1.514;2023-01-26T15:57:11;8.50;99.90
21104;DHT22;10710;53.398;-1.514;2023-01-26T15:59:38;8.50;99.90
21104;DHT22;10710;53.398;-1.514;2023-01-26T16:02:12;8.40;99.90
21104;DHT22;10710;53.398;-1.514;2023-01-26T16:04:39;8.40;99.90
21104;DHT22;10710;53.398;-1.514;2023-01-26T16:07:10;8.50;99.90
21104;DHT22;10710;53.398;-1.514;2023-01-26T16:09:39;8.40;99.90
21104;DHT22;10710;53.398;-1.514;2023-01-26T16:12:04;8.40;99.90
21104;DHT22;10710;53.398;-1.514;2023-01-26T16:14:31;8.50;99.90
21104;DHT22;10710;53.398;-1.514;2023-01-26T16:16:57;8.40;99.90
21104;DHT22;10710;53.398;-1.514;2023-01-26T16:19:22;8.50;99.90
21104;DHT22;10710;53.398;-1.514;2023-01-26T16:21:48;8.50;99.90
21104;DHT22;10710;53.398;-1.514;2023-01-26T16:24:14;8.50;99.90
21104;DHT22;10710;53.398;-1.514;2023-01-26T16:26:40;8.50;99.90
21104;DHT22;10710;53.398;-1.514;2023-01-26T16:29:05;8.50;99.90
21104;DHT22;10710;53.398;-1.514;2023-01-26T16:31:32;8.40;99.90
21104;DHT22;10710;53.398;-1.514;2023-01-26T16:33:59;8.40;99.90
21104;DHT22;10710;53.398;-1.514;2023-01-26T16:36:25;8.30;99.90
21104;DHT22;10710;53.398;-1.514;2023-01-26T16:38:51;8.10;99.90
21104;DHT22;10710;53.398;-1.514;2023-01-26T16:41:28;8.10;99.90
21104;DHT22;10710;53.398;-1.514;2023-01-26T16:43:58;8.10;99.90
21104;DHT22;10710;53.398;-1.514;2023-01-26T16:46:24;8.10;99.90
21104;DHT22;10710;53.398;-1.514;2023-01-26T16:48:50;8.20;99.90
21104;DHT22;10710;53.398;-1.514;2023-01-26T16:51:28;8.20;99.90
21104;DHT22;10710;53.398;-1.514;2023-01-26T16:53:54;8.10;99.90
21104;DHT22;10710;53.398;-1.514;2023-01-26T16:56:21;8.00;99.90
21104;DHT22;10710;53.398;-1.514;2023-01-26T16:58:48;7.90;99.90
21104;DHT22;10710;53.398;-1.514;2023-01-26T17:01:17;7.90;99.90
21104;DHT22;10710;53.398;-1.514;2023-01-26T17:03:43;7.90;99.90
21104;DHT22;10710;53.398;-1.514;2023-01-26T17:06:09;7.80;99.90
21104;DHT22;10710;53.398;-1.514;2023-01-26T17:08:37;7.70;99.90
21104;DHT22;10710;53.398;-1.514;2023-01-26T17:11:03;7.70;99.90
21104;DHT22;10710;53.398;-1.514;2023-01-26T17:13:30;7.70;99.90
21104;DHT22;10710;53.398;-1.514;2023-01-26T17:15:56;7.70;99.90
21104;DHT22;10710;53.398;-1.514;2023-01-26T17:18:23;7.80;99.90
21104;DHT22;10710;53.398;-1.514;2023-01-26T17:20:49;7.80;99.90
21104;DHT22;10710;53.398;-1.514;2023-01-26T17:23:14;7.70;99.90